Time;durP1;ratioP1;P1;durP2;ratioP2;P2;SDS_P1;SDS_P2;PMS_P1;PMS_P2;Temp;Humidity;BMP_temperature;BMP_pressure;BME280_temperature;BME280_humidity;BME280_pressure;Samples;Min_cycle;Max_cycle;Signal;HPM_P1;HPM_P2
2022/11/26 00:00:42;;;;;;;33.70;16.40;;;;;;;4.99;100.00;102527.28;5048080;28;20035;-80
2022/11/26 00:03:10;;;;;;;36.97;17.70;;;;;;;4.96;100.00;102537.78;5048603;28;20033;-80
2022/11/26 00:05:36;;;;;;;38.78;17.88;;;;;;;4.95;100.00;102530.84;5040944;28;20505;-80
2022/11/26 00:08:05;;;;;;;37.53;16.92;;;;;;;4.93;100.00;102532.63;5050472;28;20048;-80
2022/11/26 00:10:35;;;;;;;36.03;17.27;;;;;;;4.93;100.00;102532.63;5049569;28;20036;-80
2022/11/26 00:13:14;;;;;;;38.15;18.05;;;;;;;4.93;100.00;102532.63;5048474;28;20025;-80
2022/11/26 00:15:39;;;;;;;37.92;16.15;;;;;;;4.93;100.00;102540.47;5049579;28;20397;-80
2022/11/26 00:18:05;;;;;;;35.08;17.33;;;;;;;4.94;100.00;102543.94;5048657;28;20032;-80
2022/11/26 00:20:30;;;;;;;33.75;16.80;;;;;;;4.89;100.00;102548.38;5048454;28;20036;-80
2022/11/26 00:23:00;;;;;;;45.03;16.48;;;;;;;4.85;100.00;102549.34;5042632;28;20029;-79
2022/11/26 00:25:30;;;;;;;37.40;16.65;;;;;;;4.86;100.00;102549.31;5047310;28;20080;-79
2022/11/26 00:27:57;;;;;;;35.53;16.35;;;;;;;4.85;100.00;102555.44;5047787;28;20025;-80
2022/11/26 00:30:25;;;;;;;37.08;17.38;;;;;;;4.85;100.00;102549.34;5047121;28;20043;-80
2022/11/26 00:32:52;;;;;;;39.08;16.67;;;;;;;4.83;100.00;102554.59;5047629;28;20495;-79
2022/11/26 00:35:21;;;;;;;38.47;16.38;;;;;;;4.78;100.00;102542.53;5048556;28;20373;-79
2022/11/26 00:37:50;;;;;;;35.60;16.52;;;;;;;4.78;100.00;102548.63;5049125;28;20051;-78
2022/11/26 00:40:25;;;;;;;34.67;16.50;;;;;;;4.77;100.00;102551.25;5042115;28;20021;-79
2022/11/26 00:42:51;;;;;;;34.38;16.80;;;;;;;4.78;100.00;102548.63;5048323;28;20033;-80
2022/11/26 00:45:26;;;;;;;37.88;16.88;;;;;;;4.77;100.00;102552.13;5047887;28;20057;-80
2022/11/26 00:47:52;;;;;;;36.90;16.58;;;;;;;4.74;100.00;102557.41;5047715;28;20036;-79
2022/11/26 00:50:23;;;;;;;34.30;16.23;;;;;;;4.74;100.00;102562.59;5053312;28;20028;-80
2022/11/26 00:52:54;;;;;;;37.03;15.55;;;;;;;4.71;100.00;102560.94;5068029;28;20401;-79
2022/11/26 00:55:33;;;;;;;35.15;17.23;;;;;;;4.72;100.00;102562.66;5068081;28;20031;-80
2022/11/26 00:57:59;;;;;;;33.42;16.50;;;;;;;4.68;100.00;102555.78;5038892;28;20039;-80
2022/11/26 01:00:27;;;;;;;38.05;16.42;;;;;;;4.74;100.00;102567.81;5048856;28;20050;-79
2022/11/26 01:02:53;;;;;;;37.13;16.63;;;;;;;4.72;100.00;102561.78;5052594;28;20033;-80
2022/11/26 01:05:24;;;;;;;32.20;16.77;;;;;;;4.70;100.00;102560.97;5052128;28;20107;-79
2022/11/26 01:07:51;;;;;;;35.95;17.08;;;;;;;4.71;100.00;102565.28;5051541;28;20433;-80
2022/11/26 01:10:23;;;;;;;33.65;16.80;;;;;;;4.71;100.00;102560.06;5052496;28;20043;-80
2022/11/26 01:12:51;;;;;;;34.27;16.70;;;;;;;4.69;100.00;102559.25;5045212;28;20040;-80
2022/11/26 01:15:22;;;;;;;37.38;16.00;;;;;;;4.67;100.00;102555.81;5040406;28;20028;-80
2022/11/26 01:17:48;;;;;;;33.13;16.35;;;;;;;4.64;100.00;102556.75;5052192;28;20490;-80
2022/11/26 01:20:25;;;;;;;33.08;16.38;;;;;;;4.60;100.00;102564.66;5051629;28;20031;-80
2022/11/26 01:22:51;;;;;;;33.63;15.98;;;;;;;4.62;100.00;102557.69;5052358;28;20029;-80
2022/11/26 01:25:18;;;;;;;36.50;16.95;;;;;;;4.57;100.00;102559.53;5052819;28;20037;-80
2022/11/26 01:27:43;;;;;;;32.78;16.52;;;;;;;4.57;100.00;102555.16;5050196;28;20047;-80
2022/11/26 01:30:26;;;;;;;34.75;16.33;;;;;;;4.50;100.00;102547.53;5049677;28;20033;-81
2022/11/26 01:32:52;;;;;;;35.33;16.65;;;;;;;4.53;100.00;102552.66;5052315;28;20515;-80
2022/11/26 01:35:21;;;;;;;35.17;16.25;;;;;;;4.49;100.00;102556.22;5052189;28;20025;-80
2022/11/26 01:37:48;;;;;;;32.13;16.67;;;;;;;4.48;100.00;102554.53;5053296;28;20144;-80
2022/11/26 01:40:24;;;;;;;34.45;16.73;;;;;;;4.47;100.00;102553.66;5051836;28;20036;-80
2022/11/26 01:43:04;;;;;;;31.23;17.10;;;;;;;4.48;100.00;102559.72;5048287;28;20435;-80
2022/11/26 01:45:29;;;;;;;32.38;16.88;;;;;;;4.44;100.00;102561.53;5050944;28;20580;-80
2022/11/26 01:47:55;;;;;;;33.30;16.88;;;;;;;4.40;100.00;102563.34;5045705;28;20116;-80
2022/11/26 01:50:35;;;;;;;36.17;17.27;;;;;;;4.38;100.00;102570.31;5054115;28;20063;-80
2022/11/26 01:53:05;;;;;;;38.63;17.40;;;;;;;4.31;100.00;102578.28;5072852;28;20396;-81
2022/11/26 01:55:53;;;;;;;39.00;17.70;;;;;;;4.32;100.00;102580.00;5052359;28;20564;-80
2022/11/26 01:58:47;;;;;;;36.70;17.98;;;;;;;4.33;100.00;102579.97;5031651;28;20041;-82
2022/11/26 02:01:14;;;;;;;31.63;17.13;;;;;;;4.33;100.00;102579.97;5030161;28;20045;-80
2022/11/26 02:03:48;;;;;;;33.33;17.60;;;;;;;4.32;100.00;102580.88;5041133;28;20020;-80
2022/11/26 02:06:20;;;;;;;36.83;17.90;;;;;;;4.29;100.00;102591.34;5047494;28;20033;-80
2022/11/26 02:08:45;;;;;;;33.00;17.15;;;;;;;4.29;100.00;102586.16;5051892;28;20021;-81
2022/11/26 02:11:16;;;;;;;49.03;18.77;;;;;;;4.26;100.00;102591.41;5049620;28;20393;-80
2022/11/26 02:13:43;;;;;;;41.47;18.52;;;;;;;4.26;100.00;102581.00;5050146;28;20499;-80
2022/11/26 02:16:45;;;;;;;37.15;18.58;;;;;;;4.26;100.00;102591.41;5051002;28;20033;-82
2022/11/26 02:19:32;;;;;;;39.55;18.75;;;;;;;4.22;100.00;102594.97;5050439;28;20059;-80
2022/11/26 02:22:10;;;;;;;37.63;18.63;;;;;;;4.27;100.00;102602.69;5044929;28;20037;-81
2022/11/26 02:25:07;;;;;;;38.22;17.35;;;;;;;4.29;100.00;102593.09;5049446;28;20037;-81
2022/11/26 02:27:42;;;;;;;43.15;18.73;;;;;;;4.27;100.00;102598.34;5029540;28;20041;-80
2022/11/26 02:30:11;;;;;;;40.13;18.58;;;;;;;4.22;100.00;102594.97;5031293;28;20385;-81
2022/11/26 02:32:45;;;;;;;38.45;18.05;;;;;;;4.24;100.00;102597.56;5043540;28;20374;-81
2022/11/26 02:35:25;;;;;;;40.00;19.00;;;;;;;4.24;100.00;102601.00;5050622;28;20032;-81
2022/11/26 02:37:54;;;;;;;32.75;17.90;;;;;;;4.19;100.00;102595.03;5031025;28;20060;-81
2022/11/26 02:40:20;;;;;;;46.03;19.60;;;;;;;4.20;100.00;102591.53;5028348;28;20074;-81
2022/11/26 02:42:46;;;;;;;40.35;19.13;;;;;;;4.22;100.00;102591.50;5035058;28;20385;-81
2022/11/26 02:45:23;;;;;;;36.50;18.15;;;;;;;4.20;100.00;102599.34;5047061;28;20028;-81
2022/11/26 02:47:52;;;;;;;46.10;19.42;;;;;;;4.22;100.00;102597.56;5031146;28;20423;-82
2022/11/26 02:50:23;;;;;;;43.78;19.10;;;;;;;4.21;100.00;102595.88;5055079;28;20423;-81
2022/11/26 02:52:51;;;;;;;40.05;18.65;;;;;;;4.21;100.00;102602.81;5069446;28;20021;-80
2022/11/26 02:55:24;;;;;;;41.47;19.30;;;;;;;4.20;100.00;102596.75;5056653;28;20025;-80
2022/11/26 02:57:50;;;;;;;;;;;;;;;4.28;100.00;102605.28;5050875;28;20071;-80
2022/11/26 03:00:17;;;;;;;42.55;18.52;;;;;;;4.27;100.00;102607.91;5044357;28;19909;-81
2022/11/26 03:02:45;;;;;;;38.30;18.05;;;;;;;4.22;100.00;102605.41;5051679;28;20025;-80
2022/11/26 03:05:14;;;;;;;45.75;18.70;;;;;;;4.23;100.00;102611.47;5051552;28;20021;-80
2022/11/26 03:07:40;;;;;;;40.72;19.08;;;;;;;4.26;100.00;102616.63;5047416;28;20509;-80
2022/11/26 03:10:06;;;;;;;37.58;18.33;;;;;;;4.25;100.00;102615.75;5052056;28;20043;-80
2022/11/26 03:12:32;;;;;;;43.78;19.63;;;;;;;4.23;100.00;102616.69;5052063;28;20012;-80
2022/11/26 03:14:57;;;;;;;45.35;19.35;;;;;;;4.28;100.00;102618.31;5049851;28;20021;-80
2022/11/26 03:17:22;;;;;;;36.65;18.15;;;;;;;4.23;100.00;102621.88;5046751;28;20037;-80
2022/11/26 03:19:50;;;;;;;45.58;17.98;;;;;;;4.24;100.00;102628.81;5050196;28;20115;-80
2022/11/26 03:22:16;;;;;;;40.88;18.33;;;;;;;4.25;100.00;102626.19;5049046;28;20037;-80
2022/11/26 03:24:42;;;;;;;38.60;18.13;;;;;;;4.25;100.00;102626.19;5050084;28;20102;-81
2022/11/26 03:27:08;;;;;;;43.05;17.95;;;;;;;4.24;100.00;102624.47;5049190;28;20036;-80
2022/11/26 03:29:34;;;;;;;41.28;17.60;;;;;;;4.26;100.00;102635.72;5049257;28;20021;-80
2022/11/26 03:32:00;;;;;;;41.25;18.55;;;;;;;4.26;100.00;102629.63;5050773;28;20481;-80
2022/11/26 03:34:26;;;;;;;44.92;18.23;;;;;;;4.28;100.00;102633.06;5041806;28;20029;-80
2022/11/26 03:36:51;;;;;;;38.80;17.27;;;;;;;4.29;100.00;102640.84;5030379;28;20033;-80
2022/11/26 03:39:17;;;;;;;34.25;18.35;;;;;;;4.29;100.00;102638.25;5030813;28;20518;-80
2022/11/26 03:41:43;;;;;;;41.13;17.30;;;;;;;4.26;100.00;102633.09;5030769;28;20117;-80
2022/11/26 03:44:12;;;;;;;41.90;17.02;;;;;;;4.25;100.00;102636.59;5049267;28;20025;-80
2022/11/26 03:46:37;;;;;;;38.30;16.73;;;;;;;4.27;100.00;102634.81;5050041;28;20059;-81
2022/11/26 03:49:03;;;;;;;39.80;17.23;;;;;;;4.29;100.00;102638.25;5048425;28;20056;-80
2022/11/26 03:51:28;;;;;;;38.78;16.27;;;;;;;4.29;100.00;102640.00;5050979;28;20370;-81
2022/11/26 03:53:53;;;;;;;35.58;17.20;;;;;;;4.24;100.00;102640.09;5048856;28;20058;-81
2022/11/26 03:56:21;;;;;;;39.88;16.48;;;;;;;4.25;100.00;102639.19;5048236;28;20028;-82
2022/11/26 03:58:47;;;;;;;38.25;16.60;;;;;;;4.27;100.00;102640.03;5047974;28;20055;-80
2022/11/26 04:01:12;;;;;;;37.00;16.70;;;;;;;4.24;100.00;102655.72;5048486;28;20041;-80
2022/11/26 04:03:39;;;;;;;34.58;16.02;;;;;;;4.20;100.00;102659.28;5046070;28;20301;-81
2022/11/26 04:06:05;;;;;;;37.40;16.30;;;;;;;4.24;100.00;102662.69;5048796;28;20488;-81
2022/11/26 04:08:31;;;;;;;33.72;15.25;;;;;;;4.21;100.00;102658.38;5039821;28;20035;-81
2022/11/26 04:10:56;;;;;;;39.85;16.10;;;;;;;4.17;100.00;102666.28;5046989;28;20024;-81
2022/11/26 04:13:22;;;;;;;36.72;14.75;;;;;;;4.17;100.00;102659.34;5045594;28;20988;-80
2022/11/26 04:15:50;;;;;;;37.50;15.90;;;;;;;4.14;100.00;102662.00;5048640;28;20060;-80
2022/11/26 04:18:16;;;;;;;32.33;15.30;;;;;;;4.15;100.00;102666.31;5048495;28;20603;-80
2022/11/26 04:20:42;;;;;;;36.95;14.77;;;;;;;4.10;100.00;102673.34;5049549;28;20108;-80
2022/11/26 04:23:07;;;;;;;38.70;14.63;;;;;;;4.00;100.00;102672.66;5047448;28;20031;-80
2022/11/26 04:25:33;;;;;;;39.78;15.13;;;;;;;4.05;100.00;102672.59;5028972;28;20068;-80
2022/11/26 04:27:58;;;;;;;39.35;14.77;;;;;;;4.07;100.00;102669.06;5038596;28;20112;-80
2022/11/26 04:30:24;;;;;;;40.03;15.52;;;;;;;4.06;100.00;102672.56;5046641;28;20040;-80
2022/11/26 04:32:49;;;;;;;40.60;15.93;;;;;;;4.10;100.00;102665.53;5048304;28;20029;-80
2022/11/26 04:35:15;;;;;;;37.78;15.68;;;;;;;4.13;100.00;102662.88;5048956;28;20032;-80
2022/11/26 04:37:40;;;;;;;41.55;16.73;;;;;;;4.12;100.00;102666.38;5048045;28;20028;-81
2022/11/26 04:40:07;;;;;;;41.08;15.65;;;;;;;4.16;100.00;102672.38;5047620;28;20056;-80
2022/11/26 04:42:32;;;;;;;34.08;16.10;;;;;;;4.18;100.00;102670.63;5035565;28;20025;-80
2022/11/26 04:44:58;;;;;;;39.83;15.45;;;;;;;4.14;100.00;102675.03;5047253;28;20575;-81
2022/11/26 04:47:23;;;;;;;37.95;15.40;;;;;;;4.15;100.00;102678.47;5047815;28;20507;-81
2022/11/26 04:49:51;;;;;;;36.42;14.90;;;;;;;4.14;100.00;102680.22;5050443;28;20028;-80
2022/11/26 04:52:17;;;;;;;38.53;15.27;;;;;;;4.14;100.00;102679.38;5049032;28;20025;-80
2022/11/26 04:54:43;;;;;;;40.70;15.95;;;;;;;4.11;100.00;102682.91;5048568;28;20123;-80
2022/11/26 04:57:08;;;;;;;38.30;15.43;;;;;;;4.07;100.00;102674.28;5048333;28;20120;-81
2022/11/26 04:59:33;;;;;;;33.20;14.40;;;;;;;4.09;100.00;102679.47;5040197;28;20025;-81
2022/11/26 05:02:00;;;;;;;33.03;14.60;;;;;;;4.11;100.00;102671.63;5049090;28;20155;-80
2022/11/26 05:04:27;;;;;;;34.97;14.48;;;;;;;4.04;100.00;102673.47;5047291;28;20021;-81
2022/11/26 05:06:53;;;;;;;34.00;13.50;;;;;;;4.04;100.00;102676.06;5047445;28;20057;-81
2022/11/26 05:09:21;;;;;;;34.58;15.05;;;;;;;3.97;100.00;102682.25;5046948;28;20098;-80
2022/11/26 05:11:47;;;;;;;40.22;15.02;;;;;;;3.98;100.00;102682.22;5049096;28;20029;-80
2022/11/26 05:14:12;;;;;;;37.72;15.63;;;;;;;3.96;100.00;102685.75;5047127;28;20025;-80
2022/11/26 05:16:37;;;;;;;35.15;14.82;;;;;;;3.96;100.00;102688.34;5042266;28;20833;-80
2022/11/26 05:19:03;;;;;;;36.22;14.85;;;;;;;3.90;100.00;102696.25;5048048;28;20024;-81
2022/11/26 05:21:28;;;;;;;40.50;15.20;;;;;;;3.93;100.00;102696.22;5048135;28;20037;-80
2022/11/26 05:23:53;;;;;;;32.08;14.02;;;;;;;3.94;100.00;102687.50;5047964;28;20068;-80
2022/11/26 05:26:22;;;;;;;35.67;15.23;;;;;;;3.93;100.00;102696.22;5047427;28;20504;-80
2022/11/26 05:28:51;;;;;;;38.70;15.63;;;;;;;3.94;100.00;102687.50;5049052;28;20441;-80
2022/11/26 05:31:16;;;;;;;37.30;15.15;;;;;;;3.95;100.00;102689.22;5047677;28;20025;-80
2022/11/26 05:33:42;;;;;;;32.00;15.50;;;;;;;3.96;100.00;102711.78;5042886;28;20062;-80
2022/11/26 05:36:08;;;;;;;40.78;15.30;;;;;;;3.91;100.00;102698.84;5048195;28;20059;-80
2022/11/26 05:38:33;;;;;;;41.05;15.73;;;;;;;3.89;100.00;102699.75;5047404;28;20056;-80
2022/11/26 05:40:59;;;;;;;38.75;14.98;;;;;;;3.92;100.00;102703.16;5048661;28;20020;-80
2022/11/26 05:43:24;;;;;;;35.65;15.38;;;;;;;3.88;100.00;102704.09;5046176;28;20029;-81
2022/11/26 05:45:49;;;;;;;37.58;14.73;;;;;;;3.90;100.00;102715.34;5048012;28;20032;-80
2022/11/26 05:48:15;;;;;;;40.25;15.27;;;;;;;3.89;100.00;102710.16;5051562;28;20032;-80
2022/11/26 05:50:40;;;;;;;38.75;15.40;;;;;;;3.87;100.00;102701.53;5054381;28;20525;-80
2022/11/26 05:53:05;;;;;;;37.42;16.40;;;;;;;3.83;100.00;102713.72;5044533;28;20029;-82
2022/11/26 05:55:31;;;;;;;41.33;15.32;;;;;;;3.85;100.00;102711.97;5049098;28;20878;-80
2022/11/26 05:57:57;;;;;;;37.58;15.70;;;;;;;3.84;100.00;102712.00;5051763;28;20025;-80
2022/11/26 06:00:22;;;;;;;38.72;15.85;;;;;;;3.87;100.00;102719.75;5050869;28;20614;-80
2022/11/26 06:02:51;;;;;;;37.42;15.35;;;;;;;3.84;100.00;102725.88;5050862;28;20056;-80
2022/11/26 06:05:16;;;;;;;34.15;15.88;;;;;;;3.85;100.00;102734.53;5051077;28;20029;-81
2022/11/26 06:07:42;;;;;;;37.55;15.02;;;;;;;3.80;100.00;102737.22;5050616;28;20025;-81
2022/11/26 06:10:08;;;;;;;40.13;14.80;;;;;;;3.80;100.00;102738.97;5046324;28;20054;-81
2022/11/26 06:12:34;;;;;;;40.05;14.32;;;;;;;3.75;100.00;102734.69;5050460;28;20446;-81
2022/11/26 06:15:00;;;;;;;37.35;14.68;;;;;;;3.74;100.00;102737.31;5055081;28;20385;-81
2022/11/26 06:17:25;;;;;;;37.95;14.75;;;;;;;3.74;100.00;102738.16;5048625;28;20029;-80
2022/11/26 06:19:51;;;;;;;34.50;14.32;;;;;;;3.74;100.00;102732.97;5051118;28;20118;-81
2022/11/26 06:22:16;;;;;;;38.85;14.95;;;;;;;3.80;100.00;102733.75;5050494;28;20037;-81
2022/11/26 06:24:42;;;;;;;35.60;15.25;;;;;;;3.80;100.00;102731.16;5045779;28;20086;-80
2022/11/26 06:27:07;;;;;;;34.05;14.90;;;;;;;3.80;100.00;102733.75;5030273;28;20057;-80
2022/11/26 06:29:33;;;;;;;41.13;14.68;;;;;;;3.76;100.00;102739.00;5038728;28;20055;-81
2022/11/26 06:31:58;;;;;;;38.90;14.35;;;;;;;3.74;100.00;102738.16;5050403;28;20378;-81
2022/11/26 06:34:24;;;;;;;32.13;13.90;;;;;;;3.75;100.00;102739.03;5050504;28;20530;-81
2022/11/26 06:36:49;;;;;;;38.67;14.43;;;;;;;3.73;100.00;102736.44;5049814;28;20036;-81
2022/11/26 06:39:14;;;;;;;33.25;14.77;;;;;;;3.78;100.00;102738.97;5049242;28;20032;-81
2022/11/26 06:41:40;;;;;;;41.53;15.32;;;;;;;3.72;100.00;102745.16;5040590;28;20025;-81
2022/11/26 06:44:05;;;;;;;33.75;14.15;;;;;;;3.72;100.00;102741.69;5030768;28;20092;-81
2022/11/26 06:46:33;;;;;;;33.83;13.23;;;;;;;3.73;100.00;102746.00;5049307;28;20017;-81
2022/11/26 06:49:06;;;;;;;34.10;13.60;;;;;;;3.71;100.00;102755.59;5050054;28;20035;-81
2022/11/26 06:51:32;;;;;;;36.75;14.10;;;;;;;3.73;100.00;102752.06;5050894;28;20028;-82
2022/11/26 06:53:57;;;;;;;34.33;13.55;;;;;;;3.71;100.00;102752.97;5051320;28;20469;-80
2022/11/26 06:56:23;;;;;;;42.53;15.82;;;;;;;3.65;100.00;102755.69;5051841;28;20040;-81
2022/11/26 06:58:53;;;;;;;32.63;14.43;;;;;;;3.69;100.00;102755.59;5049932;28;20037;-80
2022/11/26 07:01:22;;;;;;;37.55;15.07;;;;;;;3.69;100.00;102755.59;5047422;28;20508;-81
2022/11/26 07:03:49;;;;;;;35.67;16.38;;;;;;;3.64;100.00;102754.81;5051435;28;20051;-81
2022/11/26 07:06:17;;;;;;;32.53;14.60;;;;;;;3.67;100.00;102761.72;5048728;28;20039;-81
2022/11/26 07:08:43;;;;;;;39.97;14.93;;;;;;;3.70;100.00;102762.53;5049469;28;20404;-81
2022/11/26 07:11:09;;;;;;;40.22;15.20;;;;;;;3.69;100.00;102767.75;5030424;28;20039;-81
2022/11/26 07:13:35;;;;;;;37.92;14.55;;;;;;;3.70;100.00;102770.34;5036922;28;20740;-82
2022/11/26 07:16:05;;;;;;;39.97;15.15;;;;;;;3.70;100.00;102775.53;5051156;28;20031;-81
2022/11/26 07:18:31;;;;;;;39.67;15.77;;;;;;;3.70;100.00;102778.16;5038310;28;20375;-80
2022/11/26 07:21:09;;;;;;;29.38;15.07;;;;;;;3.73;100.00;102777.25;5050892;28;20075;-81
2022/11/26 07:23:35;;;;;;;38.88;15.10;;;;;;;3.72;100.00;102776.38;5065510;28;20057;-81
2022/11/26 07:26:01;;;;;;;35.65;15.35;;;;;;;3.75;100.00;102789.34;5051891;28;20025;-82
2022/11/26 07:28:28;;;;;;;39.72;15.75;;;;;;;3.73;100.00;102793.72;5048883;28;20013;-82
2022/11/26 07:30:53;;;;;;;37.90;15.50;;;;;;;3.76;100.00;102787.59;5051056;28;20071;-82
2022/11/26 07:33:19;;;;;;;36.58;16.05;;;;;;;3.78;100.00;102789.31;5048662;28;20048;-82
2022/11/26 07:35:45;;;;;;;45.22;15.88;;;;;;;3.81;100.00;102790.13;5045580;28;20029;-82
2022/11/26 07:38:10;;;;;;;37.92;15.57;;;;;;;3.81;100.00;102790.13;5048302;28;20040;-82
2022/11/26 07:40:35;;;;;;;38.80;16.67;;;;;;;3.82;100.00;102784.06;5050135;28;20490;-83
2022/11/26 07:43:01;;;;;;;39.90;16.02;;;;;;;3.86;100.00;102785.72;5050404;28;20021;-82
2022/11/26 07:45:26;;;;;;;38.97;16.25;;;;;;;3.88;100.00;102784.81;5050430;28;20441;-82
2022/11/26 07:47:51;;;;;;;39.80;16.67;;;;;;;3.87;100.00;102785.69;5050289;28;20108;-82
2022/11/26 07:50:17;;;;;;;37.95;15.65;;;;;;;3.90;100.00;102790.00;5058945;28;20316;-83
2022/11/26 07:52:42;;;;;;;39.72;17.15;;;;;;;3.93;100.00;102789.94;5072849;28;20033;-81
2022/11/26 07:55:08;;;;;;;36.08;15.27;;;;;;;3.93;100.00;102796.03;5074733;28;20029;-81
2022/11/26 07:57:34;;;;;;;41.08;17.20;;;;;;;3.98;100.00;102795.94;5071956;28;20048;-81
2022/11/26 08:00:00;;;;;;;41.05;16.70;;;;;;;4.02;100.00;102792.44;5073319;28;20147;-82
2022/11/26 08:02:25;;;;;;;38.17;16.73;;;;;;;4.02;100.00;102785.50;5069104;28;20059;-82
2022/11/26 08:04:50;;;;;;;44.08;17.25;;;;;;;4.06;100.00;102796.72;5071806;28;20049;-81
2022/11/26 08:07:16;;;;;;;47.75;17.40;;;;;;;4.12;100.00;102795.75;5033181;28;20531;-81
2022/11/26 08:09:41;;;;;;;43.45;17.55;;;;;;;4.15;100.00;102790.50;5068247;28;20048;-80
2022/11/26 08:12:06;;;;;;;44.25;18.67;;;;;;;4.18;100.00;102793.03;5071926;28;20025;-80
2022/11/26 08:14:32;;;;;;;49.78;18.42;;;;;;;4.23;100.00;102791.22;5070938;28;20033;-81
2022/11/26 08:16:57;;;;;;;44.47;19.60;;;;;;;4.28;100.00;102792.88;5071168;28;20025;-81
2022/11/26 08:19:23;;;;;;;40.50;17.77;;;;;;;4.33;100.00;102798.84;5086209;28;20032;-81
2022/11/26 08:21:52;;;;;;;44.08;18.25;;;;;;;4.35;100.00;102801.44;5087407;28;20065;-81
2022/11/26 08:24:22;;;;;;;42.65;18.10;;;;;;;4.40;100.00;102802.22;5042287;28;20033;-80
2022/11/26 08:26:49;;;;;;;45.30;19.00;;;;;;;4.47;100.00;102813.44;5050243;28;20029;-79
2022/11/26 08:29:14;;;;;;;42.58;19.50;;;;;;;4.50;100.00;102808.16;5046882;28;20029;-79
2022/11/26 08:31:41;;;;;;;51.25;19.10;;;;;;;4.55;100.00;102806.31;5048102;28;20488;-79
2022/11/26 08:34:06;;;;;;;48.58;18.75;;;;;;;4.59;100.00;102802.78;5049151;28;20021;-79
2022/11/26 08:36:33;;;;;;;43.70;18.90;;;;;;;4.64;100.00;102806.16;5047958;28;20027;-79
2022/11/26 08:38:59;;;;;;;42.15;17.88;;;;;;;4.66;100.00;102820.03;5045149;28;20021;-79
2022/11/26 08:41:25;;;;;;;35.10;17.35;;;;;;;4.75;100.00;102808.56;5043252;28;20027;-79
2022/11/26 08:43:51;;;;;;;43.17;17.75;;;;;;;4.76;100.00;102803.31;5049784;28;20524;-79
2022/11/26 08:46:16;;;;;;;41.90;18.08;;;;;;;4.83;100.00;102806.69;5048939;28;20029;-81
2022/11/26 08:48:42;;;;;;;43.45;17.00;;;;;;;4.86;100.00;102810.13;5049057;28;20025;-80
2022/11/26 08:51:10;;;;;;;41.28;17.58;;;;;;;4.89;100.00;102812.66;5058198;28;20389;-80
2022/11/26 08:53:37;;;;;;;46.20;18.40;;;;;;;4.92;100.00;102810.00;5049197;28;20055;-81
2022/11/26 08:56:08;;;;;;;39.33;17.80;;;;;;;4.98;100.00;102811.63;5049440;28;20023;-80
2022/11/26 08:58:39;;;;;;;173.95;26.58;;;;;;;5.01;100.00;102806.34;5042784;28;20060;-79
2022/11/26 09:01:13;;;;;;;56.38;18.98;;;;;;;5.07;100.00;102810.56;5049555;28;20023;-81
2022/11/26 09:03:38;;;;;;;43.65;18.73;;;;;;;5.09;100.00;102819.22;5049335;28;20365;-81
2022/11/26 09:06:05;;;;;;;38.13;17.83;;;;;;;5.15;100.00;102813.88;5063499;28;20052;-81
2022/11/26 09:08:43;;;;;;;40.40;17.70;;;;;;;5.20;100.00;102814.66;5041872;28;20052;-81
2022/11/26 09:11:09;;;;;;;42.00;17.70;;;;;;;5.21;100.00;102821.63;5029565;28;20021;-81
2022/11/26 09:13:34;;;;;;;40.25;17.80;;;;;;;5.26;100.00;102832.81;5027033;28;20022;-81
2022/11/26 09:15:59;;;;;;;35.58;17.15;;;;;;;5.31;100.00;102830.97;5044494;28;20027;-81
2022/11/26 09:18:26;;;;;;;37.53;16.40;;;;;;;5.35;100.00;102830.88;5039651;28;20124;-81
2022/11/26 09:20:51;;;;;;;47.83;16.98;;;;;;;5.36;100.00;102829.13;5042473;28;20108;-81
2022/11/26 09:23:17;;;;;;;41.72;17.52;;;;;;;5.42;100.00;102822.94;5047921;28;20521;-81
2022/11/26 09:25:42;;;;;;;41.17;16.58;;;;;;;5.48;100.00;102831.47;5043873;28;20033;-81
2022/11/26 09:28:07;;;;;;;39.65;17.15;;;;;;;5.50;100.00;102832.31;5037135;28;20779;-83
2022/11/26 09:30:33;;;;;;;38.00;16.48;;;;;;;5.55;100.00;102846.13;5034732;28;20090;-82
2022/11/26 09:32:58;;;;;;;38.45;17.60;;;;;;;5.59;100.00;102841.69;5042578;28;20021;-82
2022/11/26 09:35:24;;;;;;;41.35;17.35;;;;;;;5.70;100.00;102855.41;5053707;28;20026;-82
2022/11/26 09:37:49;;;;;;;36.03;16.42;;;;;;;5.79;100.00;102849.13;5045763;28;20029;-82
2022/11/26 09:40:21;;;;;;;39.92;16.73;;;;;;;5.79;100.00;102849.97;5061392;28;20052;-82
2022/11/26 09:43:11;;;;;;;40.47;16.75;;;;;;;5.92;100.00;102855.81;5043017;28;20489;-82
2022/11/26 09:45:44;;;;;;;38.17;16.92;;;;;;;5.92;100.00;102847.97;5047768;28;20048;-83
2022/11/26 09:48:23;;;;;;;36.55;16.08;;;;;;;5.99;100.00;102849.56;5041440;28;20029;-82
2022/11/26 09:51:00;;;;;;;39.22;15.75;;;;;;;6.08;100.00;102848.50;5058919;28;20032;-82
2022/11/26 09:53:30;;;;;;;38.55;15.20;;;;;;;6.10;100.00;102844.09;5040349;28;20031;-82
2022/11/26 09:55:56;;;;;;;39.92;17.58;;;;;;;6.13;100.00;102839.66;5051493;28;20032;-82
2022/11/26 09:58:39;;;;;;;46.67;16.35;;;;;;;6.23;100.00;102842.91;5049993;28;20044;-82
2022/11/26 10:01:06;;;;;;;40.45;14.85;;;;;;;6.25;100.00;102844.59;5051450;28;20029;-82
2022/11/26 10:03:35;;;;;;;39.65;14.98;;;;;;;6.31;100.00;102842.72;5029831;28;20104;-82
2022/11/26 10:06:25;;;;;;;35.28;14.48;;;;;;;6.34;100.00;102842.66;5030076;28;20044;-82
2022/11/26 10:09:20;;;;;;;37.85;14.43;;;;;;;6.43;100.00;102858.13;5039548;28;20024;-82
2022/11/26 10:12:16;;;;;;;34.45;14.40;;;;;;;6.45;100.00;102848.50;5052078;28;20036;-82
2022/11/26 10:15:23;;;;;;;40.72;14.70;;;;;;;6.48;100.00;102857.13;5050033;28;20021;-82
2022/11/26 10:18:06;;;;;;;37.53;14.43;;;;;;;6.53;100.00;102854.38;5027446;28;20044;-82
2022/11/26 10:20:59;;;;;;;36.00;13.25;;;;;;;6.60;100.00;102848.97;5051282;28;20064;-82
2022/11/26 10:23:34;;;;;;;34.03;13.43;;;;;;;6.63;100.00;102850.63;5039003;28;20029;-82
2022/11/26 10:26:17;;;;;;;34.47;13.50;;;;;;;6.69;100.00;102847.88;5032648;28;20051;-82
2022/11/26 10:28:46;;;;;;;34.13;12.50;;;;;;;6.74;100.00;102847.75;5031973;28;20032;-82
2022/11/26 10:31:20;;;;;;;38.50;13.55;;;;;;;6.82;100.00;102849.28;5037719;28;20028;-82
2022/11/26 10:33:57;;;;;;;35.35;13.80;;;;;;;6.90;100.00;102834.25;5048121;28;20021;-82
2022/11/26 10:36:25;;;;;;;34.50;13.25;;;;;;;6.93;100.00;102827.19;5036090;28;20033;-82
2022/11/26 10:38:54;;;;;;;36.55;12.32;;;;;;;7.01;100.00;102817.38;5047046;28;20685;-82
2022/11/26 10:41:21;;;;;;;33.75;12.77;;;;;;;7.05;100.00;102821.63;5038002;28;20497;-84
2022/11/26 10:43:47;;;;;;;35.70;12.68;;;;;;;7.07;100.00;102817.22;5045584;28;20393;-83
2022/11/26 10:46:31;;;;;;;36.17;12.65;;;;;;;7.15;100.00;102823.09;5034460;28;20108;-82
2022/11/26 10:49:15;;;;;;;35.25;12.85;;;;;;;7.20;100.00;102810.72;5033580;28;20394;-83
2022/11/26 10:51:44;;;;;;;31.25;12.50;;;;;;;7.21;100.00;102802.84;5045875;28;20024;-83
2022/11/26 10:54:23;;;;;;;36.47;13.05;;;;;;;7.33;100.00;102819.09;5038370;28;20162;-83
2022/11/26 10:56:52;;;;;;;33.33;11.95;;;;;;;7.38;100.00;102819.81;5051395;28;20025;-84
2022/11/26 10:59:39;;;;;;;31.67;11.75;;;;;;;7.43;100.00;102818.78;5045024;28;20485;-84
2022/11/26 11:02:23;;;;;;;32.30;11.93;;;;;;;7.53;100.00;102822.84;5051038;28;20037;-84
2022/11/26 11:04:51;;;;;;;35.20;11.43;;;;;;;7.64;100.00;102811.22;5048955;28;20040;-84
2022/11/26 11:07:36;;;;;;;32.65;12.07;;;;;;;7.74;100.00;102807.41;5048056;28;20028;-84
2022/11/26 11:10:08;;;;;;;34.13;10.77;;;;;;;7.81;100.00;102814.16;5060253;28;20123;-81
2022/11/26 11:12:38;;;;;;;33.05;10.65;;;;;;;7.87;100.00;102808.72;5037227;28;20026;-82
2022/11/26 11:15:22;;;;;;;33.67;10.80;;;;;;;7.95;100.00;102805.84;5055893;28;20022;-83
2022/11/26 11:17:57;;;;;;;30.35;10.68;;;;;;;8.06;100.00;102815.13;5061012;28;20502;-82